Time;durP1;ratioP1;P1;durP2;ratioP2;P2;SDS_P1;SDS_P2;PMS_P1;PMS_P2;Temp;Humidity;BMP_temperature;BMP_pressure;BME280_temperature;BME280_humidity;BME280_pressure;Samples;Min_cycle;Max_cycle;Signal;HPM_P1;HPM_P2
2023/03/11 00:02:22;;;;;;;0.90;0.90;;;5.80;79.70;;;;;;929444;150;27351;-75
2023/03/11 00:04:49;;;;;;;0.83;0.83;;;5.80;79.90;;;;;;931249;150;27473;-76
2023/03/11 00:07:15;;;;;;;0.83;0.83;;;5.80;80.00;;;;;;914252;153;27821;-76
2023/03/11 00:09:42;;;;;;;0.80;0.80;;;5.80;80.00;;;;;;929293;150;27366;-76
2023/03/11 00:12:08;;;;;;;0.83;0.83;;;5.80;80.20;;;;;;930432;153;27850;-76
2023/03/11 00:14:35;;;;;;;0.70;0.70;;;5.80;80.30;;;;;;912191;153;27376;-75
2023/03/11 00:17:01;;;;;;;1.10;1.00;;;5.80;80.30;;;;;;928160;150;27505;-76
2023/03/11 00:19:28;;;;;;;1.00;1.00;;;5.80;80.30;;;;;;912686;153;27421;-75
2023/03/11 00:21:55;;;;;;;0.93;0.93;;;5.80;80.30;;;;;;921075;153;27789;-75
2023/03/11 00:24:21;;;;;;;0.80;0.80;;;5.80;80.30;;;;;;902930;155;27374;-75
2023/03/11 00:26:48;;;;;;;0.93;0.93;;;5.70;80.30;;;;;;903830;155;27426;-76
2023/03/11 00:29:14;;;;;;;0.90;0.90;;;5.70;80.20;;;;;;911898;154;28205;-75
2023/03/11 00:31:41;;;;;;;1.13;1.13;;;5.70;80.20;;;;;;904552;155;27399;-75
2023/03/11 00:34:08;;;;;;;1.00;1.00;;;5.70;80.20;;;;;;918645;152;27453;-75
2023/03/11 00:36:34;;;;;;;1.10;1.00;;;5.70;80.20;;;;;;903401;155;27415;-75
2023/03/11 00:39:01;;;;;;;0.83;0.83;;;5.70;80.20;;;;;;906987;155;27402;-75
2023/03/11 00:41:27;;;;;;;0.90;0.90;;;5.70;80.10;;;;;;918711;152;27900;-75
2023/03/11 00:43:54;;;;;;;0.77;0.77;;;5.70;80.20;;;;;;917610;152;27451;-75
2023/03/11 00:46:21;;;;;;;0.90;0.90;;;5.70;80.00;;;;;;924741;151;27332;-74
2023/03/11 00:48:47;;;;;;;0.90;0.90;;;5.70;79.90;;;;;;906267;154;27484;-75
2023/03/11 00:51:14;;;;;;;0.80;0.80;;;5.60;79.70;;;;;;920960;151;27463;-75
2023/03/11 00:53:40;;;;;;;1.00;0.90;;;5.60;79.60;;;;;;919139;152;27376;-75
2023/03/11 00:56:10;;;;;;;2.27;0.80;;;5.50;79.60;;;;;;902780;153;27478;-75
2023/03/11 00:58:36;;;;;;;1.10;0.87;;;5.50;79.60;;;;;;923664;151;27374;-75
2023/03/11 01:01:12;;;;;;;0.90;0.90;;;5.50;79.60;;;;;;938326;148;27311;-75
2023/03/11 01:03:38;;;;;;;0.90;0.90;;;5.50;79.60;;;;;;903569;154;27426;-75
2023/03/11 01:06:05;;;;;;;0.80;0.80;;;5.40;79.50;;;;;;917672;152;27435;-76
2023/03/11 01:11:54;;;;;;;1.23;1.00;;;5.40;79.70;;;;;;901033;155;27467;-76
2023/03/11 01:14:20;;;;;;;0.87;0.87;;;5.30;79.70;;;;;;901516;155;27473;-76
2023/03/11 01:16:47;;;;;;;0.70;0.70;;;5.30;79.90;;;;;;902901;155;27495;-74
2023/03/11 01:19:14;;;;;;;0.70;0.70;;;5.30;80.00;;;;;;903935;154;27505;-75
2023/03/11 01:21:41;;;;;;;1.53;0.93;;;5.30;80.10;;;;;;917674;152;27477;-75
2023/03/11 01:24:07;;;;;;;0.97;0.97;;;5.30;80.20;;;;;;910112;153;27425;-75
2023/03/11 01:26:33;;;;;;;1.70;0.90;;;5.40;80.20;;;;;;926558;151;27318;-75
2023/03/11 01:29:00;;;;;;;0.90;0.90;;;5.40;80.20;;;;;;909549;153;27407;-75
2023/03/11 01:31:27;;;;;;;0.83;0.83;;;5.40;80.10;;;;;;909578;153;27481;-75
2023/03/11 01:33:53;;;;;;;1.00;0.90;;;5.40;80.00;;;;;;917320;153;27341;-75
2023/03/11 01:36:20;;;;;;;0.67;0.67;;;5.50;80.00;;;;;;910430;153;27310;-75
2023/03/11 01:38:46;;;;;;;1.23;0.90;;;5.50;80.00;;;;;;924971;151;27508;-75
2023/03/11 01:41:13;;;;;;;0.80;0.80;;;5.50;80.00;;;;;;910176;153;27405;-74
2023/03/11 01:43:42;;;;;;;1.40;0.90;;;5.50;79.90;;;;;;912179;153;27362;-74
2023/03/11 01:46:12;;;;;;;1.23;1.00;;;5.60;79.90;;;;;;912900;153;27472;-75
2023/03/11 01:48:38;;;;;;;2.00;0.90;;;5.60;79.70;;;;;;923266;151;27936;-75
2023/03/11 01:51:05;;;;;;;0.80;0.80;;;5.60;79.60;;;;;;926933;153;27406;-75
2023/03/11 01:53:31;;;;;;;0.70;0.70;;;5.60;79.60;;;;;;910780;153;27392;-74
2023/03/11 01:55:58;;;;;;;0.70;0.70;;;5.60;79.40;;;;;;925281;151;27434;-75
2023/03/11 01:58:24;;;;;;;1.37;0.80;;;5.60;79.40;;;;;;924276;151;27816;-75
2023/03/11 02:00:51;;;;;;;0.67;0.67;;;5.60;79.20;;;;;;918256;153;27479;-75
2023/03/11 02:03:20;;;;;;;1.47;1.20;;;5.70;79.20;;;;;;910866;153;27398;-75
2023/03/11 02:05:47;;;;;;;1.27;0.90;;;5.60;79.10;;;;;;917909;153;27410;-75
2023/03/11 02:08:13;;;;;;;1.40;0.90;;;5.60;79.10;;;;;;906073;154;27546;-75
2023/03/11 02:10:40;;;;;;;1.10;1.10;;;5.60;79.00;;;;;;918378;153;27364;-75
2023/03/11 02:13:07;;;;;;;1.13;1.07;;;5.60;79.00;;;;;;925492;151;27374;-75
2023/03/11 02:15:33;;;;;;;2.63;0.97;;;5.60;79.10;;;;;;909632;153;27378;-75
2023/03/11 02:18:00;;;;;;;0.70;0.70;;;5.50;79.00;;;;;;918681;153;27399;-75
2023/03/11 02:20:29;;;;;;;0.77;0.77;;;5.50;79.00;;;;;;915129;153;27424;-74
2023/03/11 02:22:56;;;;;;;0.90;0.90;;;5.50;79.00;;;;;;925042;151;27380;-75
2023/03/11 02:25:43;;;;;;;0.93;0.80;;;5.40;78.90;;;;;;903798;155;27469;-75
2023/03/11 02:28:10;;;;;;;1.60;1.10;;;5.40;78.90;;;;;;924004;151;27374;-75
2023/03/11 02:30:36;;;;;;;2.87;1.00;;;5.30;78.90;;;;;;923002;151;27412;-75
2023/03/11 02:33:03;;;;;;;1.37;0.70;;;5.30;79.10;;;;;;941764;148;27403;-75
2023/03/11 02:35:30;;;;;;;1.13;0.90;;;5.20;79.10;;;;;;939510;148;27349;-75
2023/03/11 02:37:56;;;;;;;2.13;1.10;;;5.20;79.20;;;;;;924085;151;27530;-75
2023/03/11 02:40:23;;;;;;;2.73;0.90;;;5.10;79.20;;;;;;924008;151;27423;-75
2023/03/11 02:43:07;;;;;;;2.20;1.10;;;5.10;79.30;;;;;;921328;151;27344;-75
2023/03/11 02:45:34;;;;;;;1.30;1.20;;;5.00;79.20;;;;;;939431;148;27416;-77
2023/03/11 02:48:00;;;;;;;0.90;0.90;;;5.00;79.20;;;;;;924783;151;27403;-77
2023/03/11 02:50:27;;;;;;;0.77;0.70;;;4.90;79.30;;;;;;926508;151;27412;-75
2023/03/11 02:52:53;;;;;;;1.30;1.20;;;4.80;79.40;;;;;;911586;154;27397;-75
2023/03/11 02:55:20;;;;;;;1.17;1.00;;;4.80;79.60;;;;;;903727;153;27771;-75
2023/03/11 02:57:46;;;;;;;3.87;1.30;;;4.70;79.80;;;;;;904047;155;27499;-75
2023/03/11 03:00:15;;;;;;;0.90;0.90;;;4.70;80.00;;;;;;911713;154;27496;-75
2023/03/11 03:02:40;;;;;;;1.50;1.10;;;4.60;80.30;;;;;;900800;155;27452;-75
2023/03/11 03:05:06;;;;;;;1.17;1.13;;;4.60;80.50;;;;;;919954;152;27421;-75
2023/03/11 03:07:33;;;;;;;2.53;1.00;;;4.60;80.70;;;;;;919209;152;27403;-75
2023/03/11 03:09:59;;;;;;;0.97;0.93;;;4.60;80.80;;;;;;904284;154;27624;-75
2023/03/11 03:12:26;;;;;;;1.40;1.07;;;4.60;80.90;;;;;;916579;152;27383;-75
2023/03/11 03:14:53;;;;;;;0.87;0.87;;;4.60;80.90;;;;;;923423;151;27366;-75
2023/03/11 03:17:19;;;;;;;0.97;0.97;;;4.70;80.90;;;;;;923904;151;27373;-75
2023/03/11 03:19:46;;;;;;;1.30;1.20;;;4.70;81.00;;;;;;925344;151;27381;-75
2023/03/11 03:22:13;;;;;;;2.67;1.10;;;4.70;80.90;;;;;;924528;151;27405;-75
2023/03/11 03:24:39;;;;;;;1.57;1.30;;;4.70;81.00;;;;;;923276;151;27463;-75
2023/03/11 03:27:05;;;;;;;1.20;0.90;;;4.70;81.00;;;;;;924978;151;27378;-78
2023/03/11 03:29:32;;;;;;;1.17;0.97;;;4.70;81.00;;;;;;925468;151;27327;-78
2023/03/11 03:31:59;;;;;;;3.77;1.80;;;4.70;80.90;;;;;;925605;151;27382;-78
2023/03/11 03:34:25;;;;;;;2.20;1.30;;;4.70;80.90;;;;;;924449;151;27468;-78
2023/03/11 03:36:52;;;;;;;2.77;1.20;;;4.70;80.90;;;;;;926700;151;27426;-78
2023/03/11 03:39:18;;;;;;;3.17;1.17;;;4.70;80.70;;;;;;926577;151;27294;-78
2023/03/11 03:41:45;;;;;;;2.70;1.80;;;4.70;80.70;;;;;;925404;151;27423;-78
2023/03/11 03:44:12;;;;;;;1.40;1.30;;;4.60;80.60;;;;;;926754;151;27401;-79
2023/03/11 03:46:38;;;;;;;1.10;1.00;;;4.60;80.60;;;;;;926464;151;27326;-79
2023/03/11 03:49:05;;;;;;;2.67;1.50;;;4.60;80.60;;;;;;927586;151;27308;-78
2023/03/11 03:51:31;;;;;;;1.27;1.27;;;4.60;80.60;;;;;;925587;151;27372;-79
2023/03/11 03:53:58;;;;;;;3.23;1.33;;;4.60;80.60;;;;;;926838;151;27424;-79
2023/03/11 03:56:25;;;;;;;2.17;1.37;;;4.50;80.60;;;;;;925262;151;27323;-79
2023/03/11 03:58:51;;;;;;;1.30;1.20;;;4.50;80.60;;;;;;926045;151;27368;-78
2023/03/11 04:01:18;;;;;;;1.73;1.63;;;4.50;80.60;;;;;;925544;151;27509;-78
2023/03/11 04:03:44;;;;;;;1.90;1.30;;;4.50;80.60;;;;;;927190;151;27411;-78
2023/03/11 04:06:20;;;;;;;1.10;1.10;;;4.50;80.70;;;;;;925535;151;27454;-78
2023/03/11 04:08:47;;;;;;;1.20;1.10;;;4.50;80.70;;;;;;924910;149;27356;-79
2023/03/11 04:11:13;;;;;;;1.67;1.20;;;4.50;80.90;;;;;;926713;151;27338;-78
2023/03/11 04:13:40;;;;;;;1.97;1.40;;;4.40;80.90;;;;;;925324;151;27367;-78
2023/03/11 04:16:06;;;;;;;2.63;1.23;;;4.50;81.20;;;;;;926309;151;27405;-78
2023/03/11 04:18:33;;;;;;;2.63;1.03;;;4.50;81.20;;;;;;907617;153;27385;-78
2023/03/11 04:20:59;;;;;;;1.73;1.27;;;4.50;81.30;;;;;;912096;153;27477;-78
2023/03/11 04:23:26;;;;;;;2.60;1.37;;;4.50;81.30;;;;;;910158;153;27401;-79
2023/03/11 04:25:53;;;;;;;3.43;1.13;;;4.50;81.30;;;;;;926537;151;27922;-78
2023/03/11 04:28:19;;;;;;;1.27;1.20;;;4.50;81.20;;;;;;925400;151;27834;-79
2023/03/11 04:30:46;;;;;;;1.47;1.37;;;4.60;81.30;;;;;;927804;151;27416;-79
2023/03/11 04:33:12;;;;;;;1.07;1.07;;;4.60;81.30;;;;;;925736;151;27338;-78
2023/03/11 04:35:39;;;;;;;1.60;1.30;;;4.60;81.20;;;;;;911819;153;27475;-78
2023/03/11 04:38:06;;;;;;;1.23;1.13;;;4.60;81.10;;;;;;913570;153;27399;-78
2023/03/11 04:40:32;;;;;;;2.07;1.30;;;4.60;81.10;;;;;;909635;153;27365;-78
2023/03/11 04:42:59;;;;;;;1.70;1.30;;;4.60;81.00;;;;;;910393;153;27394;-78
2023/03/11 04:45:25;;;;;;;2.87;1.13;;;4.70;81.10;;;;;;925146;151;27436;-78
2023/03/11 04:47:52;;;;;;;2.00;1.23;;;4.70;81.10;;;;;;926559;151;27418;-78
2023/03/11 04:50:18;;;;;;;2.43;1.40;;;4.70;81.20;;;;;;923874;151;27943;-78
2023/03/11 04:52:45;;;;;;;1.43;1.27;;;4.70;81.20;;;;;;928553;151;27953;-78
2023/03/11 04:55:12;;;;;;;1.30;1.23;;;4.70;81.20;;;;;;926356;151;27308;-78
2023/03/11 04:57:38;;;;;;;2.10;1.43;;;4.70;81.20;;;;;;926738;151;27512;-78
2023/03/11 05:00:08;;;;;;;1.63;1.50;;;4.70;81.10;;;;;;926499;151;27466;-78
2023/03/11 05:02:31;;;;;;;2.47;1.40;;;4.70;81.00;;;;;;924729;151;27452;-78
2023/03/11 05:04:58;;;;;;;3.90;1.40;;;4.70;80.90;;;;;;926108;151;27351;-78
2023/03/11 05:07:25;;;;;;;3.20;1.40;;;4.80;81.00;;;;;;926821;151;27415;-78
2023/03/11 05:09:51;;;;;;;1.93;1.13;;;4.70;80.90;;;;;;926901;151;27434;-78
2023/03/11 05:12:18;;;;;;;1.80;1.37;;;4.80;81.00;;;;;;926059;151;27319;-78
2023/03/11 05:14:44;;;;;;;1.70;1.10;;;4.80;80.80;;;;;;925861;151;27394;-78
2023/03/11 05:17:12;;;;;;;1.57;1.47;;;4.70;80.60;;;;;;927469;151;27452;-78
2023/03/11 05:19:37;;;;;;;2.83;1.67;;;4.70;80.60;;;;;;925542;151;27414;-78
2023/03/11 05:22:04;;;;;;;1.50;1.40;;;4.70;80.60;;;;;;927105;151;27378;-78
2023/03/11 05:24:31;;;;;;;3.07;1.77;;;4.70;80.70;;;;;;927142;151;27928;-78
2023/03/11 05:26:57;;;;;;;2.30;1.77;;;4.70;80.80;;;;;;923199;151;27398;-78
2023/03/11 05:29:24;;;;;;;2.73;1.70;;;4.70;80.90;;;;;;922495;151;27493;-78
2023/03/11 05:31:50;;;;;;;1.60;1.50;;;4.70;80.90;;;;;;924112;151;27416;-78
2023/03/11 05:34:17;;;;;;;2.70;1.53;;;4.60;80.80;;;;;;921560;151;27607;-78
2023/03/11 05:36:44;;;;;;;1.70;1.60;;;4.60;80.60;;;;;;922604;151;27343;-78
2023/03/11 05:39:10;;;;;;;1.40;1.30;;;4.60;80.60;;;;;;924256;151;27497;-78
2023/03/11 05:41:37;;;;;;;1.77;1.67;;;4.50;80.30;;;;;;923155;151;27415;-78
2023/03/11 05:44:03;;;;;;;1.50;1.33;;;4.50;80.20;;;;;;922636;151;27382;-78
2023/03/11 05:46:31;;;;;;;2.13;1.23;;;4.40;80.10;;;;;;920509;151;27346;-78
2023/03/11 05:48:56;;;;;;;1.33;1.23;;;4.40;80.10;;;;;;925465;151;27348;-78
2023/03/11 05:51:23;;;;;;;2.07;1.97;;;4.30;80.10;;;;;;924091;151;27424;-78
2023/03/11 05:53:50;;;;;;;2.00;1.80;;;4.20;80.10;;;;;;922049;151;27795;-78
2023/03/11 05:56:19;;;;;;;2.97;1.60;;;4.10;80.30;;;;;;922449;151;27436;-78
2023/03/11 05:58:46;;;;;;;2.30;1.80;;;4.00;80.40;;;;;;923352;151;27345;-78
2023/03/11 06:01:12;;;;;;;3.40;1.60;;;4.00;80.60;;;;;;923958;151;27876;-78
2023/03/11 06:03:39;;;;;;;2.03;1.80;;;3.90;80.70;;;;;;924217;151;27373;-78
2023/03/11 06:06:06;;;;;;;3.00;1.80;;;3.80;81.00;;;;;;939450;148;27270;-78
2023/03/11 06:08:33;;;;;;;1.80;1.70;;;3.80;81.30;;;;;;903080;154;27571;-78
2023/03/11 06:11:05;;;;;;;4.40;2.13;;;3.70;80.70;;;;;;904005;153;27404;-78
2023/03/11 06:13:31;;;;;;;5.10;2.27;;;3.70;81.80;;;;;;903563;154;27438;-78
2023/03/11 06:15:58;;;;;;;3.53;1.90;;;3.70;82.30;;;;;;917835;152;27362;-78
2023/03/11 06:18:25;;;;;;;2.13;1.80;;;3.70;82.70;;;;;;901127;155;27368;-78
2023/03/11 06:20:51;;;;;;;2.63;1.83;;;3.80;83.40;;;;;;903915;155;27408;-78
2023/03/11 06:23:17;;;;;;;1.70;1.60;;;3.90;83.70;;;;;;905784;154;27487;-78
2023/03/11 06:25:45;;;;;;;3.07;1.80;;;3.90;84.00;;;;;;903649;154;27388;-78
2023/03/11 06:28:11;;;;;;;3.67;1.73;;;4.10;84.30;;;;;;926332;150;27894;-78
2023/03/11 06:30:37;;;;;;;3.40;1.80;;;4.10;84.30;;;;;;926300;153;27537;-78
2023/03/11 06:33:04;;;;;;;1.70;1.60;;;4.30;84.40;;;;;;926350;153;27385;-78
2023/03/11 06:35:30;;;;;;;3.47;2.00;;;4.40;85.00;;;;;;924718;150;27410;-78
2023/03/11 06:37:57;;;;;;;1.73;1.63;;;4.50;84.00;;;;;;925014;153;27441;-78
2023/03/11 06:40:24;;;;;;;2.33;2.00;;;4.60;83.90;;;;;;925294;153;27446;-78
2023/03/11 06:42:51;;;;;;;3.97;2.03;;;4.70;83.70;;;;;;926547;153;27476;-78
2023/03/11 06:45:17;;;;;;;4.97;2.10;;;4.80;83.50;;;;;;924912;153;27411;-78
2023/03/11 06:47:43;;;;;;;2.37;1.87;;;4.90;83.40;;;;;;907546;154;27400;-78
2023/03/11 06:50:10;;;;;;;1.83;1.73;;;5.00;83.40;;;;;;926692;153;27352;-78
2023/03/11 06:52:37;;;;;;;4.23;2.13;;;5.00;83.20;;;;;;925127;153;27312;-78
2023/03/11 06:55:03;;;;;;;3.70;2.13;;;5.10;83.00;;;;;;924990;151;27400;-78
2023/03/11 06:57:30;;;;;;;1.73;1.60;;;5.10;83.00;;;;;;922390;153;27914;-78
2023/03/11 06:59:56;;;;;;;2.33;2.03;;;5.20;83.00;;;;;;925837;153;27402;-78
2023/03/11 07:02:23;;;;;;;3.27;2.47;;;5.20;83.00;;;;;;943482;148;27330;-78
2023/03/11 07:04:50;;;;;;;2.40;1.70;;;5.20;83.00;;;;;;941127;148;27433;-78
2023/03/11 07:07:16;;;;;;;1.70;1.60;;;5.20;82.90;;;;;;943761;148;27399;-78
2023/03/11 07:09:43;;;;;;;1.93;1.83;;;5.20;82.60;;;;;;943300;148;27415;-78
2023/03/11 07:12:09;;;;;;;2.57;1.60;;;5.20;82.40;;;;;;943257;148;27758;-78
2023/03/11 07:17:58;;;;;;;2.23;1.50;;;5.20;82.10;;;;;;942779;148;27316;-78
2023/03/11 07:20:24;;;;;;;1.50;1.40;;;5.20;81.90;;;;;;948408;148;27399;-78
2023/03/11 07:22:51;;;;;;;1.70;1.60;;;5.20;82.10;;;;;;943157;148;27457;-78
2023/03/11 07:25:18;;;;;;;2.20;1.40;;;5.20;82.20;;;;;;942661;148;27372;-78
2023/03/11 07:27:44;;;;;;;1.40;1.30;;;5.30;82.30;;;;;;942598;148;27396;-78
2023/03/11 07:30:11;;;;;;;1.70;1.53;;;5.30;82.40;;;;;;924254;151;27303;-78
2023/03/11 07:32:37;;;;;;;1.87;1.43;;;5.30;82.20;;;;;;923473;151;27484;-78
2023/03/11 07:35:04;;;;;;;2.57;1.50;;;5.30;82.20;;;;;;923535;151;27476;-78
2023/03/11 07:37:31;;;;;;;1.60;1.50;;;5.40;82.30;;;;;;923667;151;27832;-78
2023/03/11 07:39:57;;;;;;;1.67;1.33;;;5.40;82.40;;;;;;921213;151;27372;-78
2023/03/11 07:42:24;;;;;;;1.40;1.30;;;5.50;82.50;;;;;;925049;151;27442;-78
2023/03/11 07:44:50;;;;;;;3.23;1.63;;;5.50;82.50;;;;;;924492;151;27508;-78
2023/03/11 07:47:17;;;;;;;1.97;1.70;;;5.50;82.50;;;;;;923748;151;27489;-78
2023/03/11 07:49:44;;;;;;;2.70;1.73;;;5.60;82.50;;;;;;903989;154;27324;-78
2023/03/11 07:52:10;;;;;;;2.87;1.30;;;5.60;82.50;;;;;;901280;155;27368;-77
2023/03/11 07:54:37;;;;;;;2.47;1.50;;;5.60;82.40;;;;;;919073;152;27854;-78
2023/03/11 07:57:03;;;;;;;1.70;1.53;;;5.60;82.50;;;;;;919235;152;27379;-78
2023/03/11 07:59:30;;;;;;;3.03;1.67;;;5.70;82.80;;;;;;901692;155;27889;-78
2023/03/11 08:01:56;;;;;;;2.33;1.60;;;5.70;83.00;;;;;;902046;155;27497;-78
2023/03/11 08:04:23;;;;;;;3.43;2.00;;;5.80;83.50;;;;;;908683;154;27349;-78
2023/03/11 08:06:50;;;;;;;1.73;1.63;;;5.90;84.10;;;;;;901365;155;27427;-78
2023/03/11 08:09:16;;;;;;;1.93;1.80;;;6.00;84.70;;;;;;919400;152;27511;-78
2023/03/11 08:11:43;;;;;;;1.93;1.70;;;6.10;85.10;;;;;;901680;154;27410;-78
2023/03/11 08:14:09;;;;;;;2.57;1.90;;;6.30;85.60;;;;;;917447;152;27457;-78
2023/03/11 08:16:36;;;;;;;2.30;1.93;;;6.50;86.10;;;;;;901064;155;28010;-78
2023/03/11 08:19:03;;;;;;;2.27;1.80;;;6.60;86.40;;;;;;901578;154;27487;-78
2023/03/11 08:21:30;;;;;;;2.13;1.80;;;6.90;86.60;;;;;;901871;155;27549;-78
2023/03/11 08:23:58;;;;;;;2.03;1.87;;;7.20;86.50;;;;;;904451;154;27484;-77
2023/03/11 08:26:25;;;;;;;3.97;2.40;;;7.40;86.00;;;;;;902607;155;27495;-77
2023/03/11 08:28:52;;;;;;;3.03;1.80;;;7.60;85.30;;;;;;903969;154;27571;-77
2023/03/11 08:31:18;;;;;;;2.70;2.27;;;7.90;85.10;;;;;;902456;154;27358;-78
2023/03/11 08:33:45;;;;;;;2.93;1.90;;;8.30;86.30;;;;;;905442;154;27455;-78
2023/03/11 08:36:11;;;;;;;2.97;1.80;;;8.60;87.30;;;;;;918306;152;27371;-77
2023/03/11 08:38:38;;;;;;;2.43;1.90;;;9.10;88.10;;;;;;922345;152;27495;-77
2023/03/11 08:41:04;;;;;;;4.83;2.10;;;9.80;90.00;;;;;;902623;155;27596;-78
2023/03/11 08:43:31;;;;;;;2.83;2.00;;;10.60;90.50;;;;;;904218;155;27366;-77
2023/03/11 08:45:58;;;;;;;4.55;2.30;;;11.50;90.90;;;;;;918897;152;27502;-77
2023/03/11 08:48:24;;;;;;;4.35;2.10;;;12.40;90.90;;;;;;911805;154;27506;-77
2023/03/11 08:50:51;;;;;;;4.50;2.12;;;13.40;90.40;;;;;;905096;154;27419;-77
2023/03/11 08:53:17;;;;;;;4.83;2.00;;;14.50;88.60;;;;;;939565;148;27380;-77
2023/03/11 08:55:44;;;;;;;2.67;1.85;;;15.40;84.50;;;;;;911667;154;27423;-77
2023/03/11 08:58:11;;;;;;;2.65;1.60;;;16.20;79.30;;;;;;911834;154;27361;-77
2023/03/11 09:00:37;;;;;;;3.15;1.60;;;16.70;74.60;;;;;;919535;154;27434;-77
2023/03/11 09:03:04;;;;;;;2.83;1.22;;;17.00;70.20;;;;;;901516;155;27390;-77
2023/03/11 09:05:30;;;;;;;2.55;1.60;;;17.00;67.40;;;;;;919181;152;27424;-77
2023/03/11 09:07:57;;;;;;;1.85;1.27;;;16.90;66.00;;;;;;919222;152;27317;-77
2023/03/11 09:10:24;;;;;;;3.20;1.30;;;16.80;65.30;;;;;;902385;154;27431;-77
2023/03/11 09:12:50;;;;;;;4.15;1.92;;;16.60;64.40;;;;;;920851;152;27425;-77
2023/03/11 09:15:17;;;;;;;2.33;1.22;;;16.40;63.90;;;;;;903604;154;27391;-77
2023/03/11 09:17:43;;;;;;;2.33;1.62;;;16.30;63.90;;;;;;905012;154;27345;-77
2023/03/11 09:20:13;;;;;;;2.67;1.60;;;16.40;64.80;;;;;;922594;152;27365;-77
2023/03/11 09:22:39;;;;;;;1.40;1.30;;;16.70;66.30;;;;;;919204;152;27522;-77
2023/03/11 09:25:06;;;;;;;1.77;1.42;;;16.90;67.10;;;;;;919706;152;27298;-77
2023/03/11 09:27:33;;;;;;;2.25;1.32;;;17.30;65.60;;;;;;924141;151;27467;-77
2023/03/11 09:29:59;;;;;;;1.47;1.22;;;17.50;62.80;;;;;;926624;151;27363;-77
2023/03/11 09:32:26;;;;;;;3.00;1.60;;;17.70;62.20;;;;;;927457;151;27475;-77
2023/03/11 09:34:52;;;;;;;2.37;1.30;;;17.70;61.60;;;;;;924847;151;27396;-77
2023/03/11 09:37:19;;;;;;;2.75;1.20;;;17.70;60.70;;;;;;926962;151;27372;-77
2023/03/11 09:39:46;;;;;;;2.47;1.35;;;17.70;59.40;;;;;;926417;151;27290;-77
2023/03/11 09:42:24;;;;;;;1.60;1.10;;;17.70;59.70;;;;;;924243;151;27316;-77
2023/03/11 09:44:54;;;;;;;4.05;1.40;;;17.80;60.60;;;;;;926506;151;27496;-77
2023/03/11 09:47:24;;;;;;;1.87;1.10;;;17.90;61.00;;;;;;920662;151;27428;-77
2023/03/11 09:50:03;;;;;;;2.62;1.42;;;17.90;60.30;;;;;;925260;151;27508;-77
2023/03/11 09:52:37;;;;;;;3.02;1.62;;;17.90;58.70;;;;;;925582;151;27431;-77
2023/03/11 09:55:04;;;;;;;1.55;1.27;;;17.60;57.20;;;;;;926757;151;27339;-77
2023/03/11 09:57:33;;;;;;;2.60;1.40;;;17.20;56.40;;;;;;927774;151;27340;-77
2023/03/11 09:59:59;;;;;;;2.00;1.70;;;16.60;55.70;;;;;;924521;151;27418;-77
2023/03/11 10:02:26;;;;;;;2.55;1.30;;;15.90;55.60;;;;;;925957;151;27387;-77
2023/03/11 10:04:58;;;;;;;3.43;1.60;;;15.30;55.60;;;;;;927114;151;27353;-77
2023/03/11 10:07:25;;;;;;;1.50;1.40;;;14.70;55.70;;;;;;922141;151;27773;-77
2023/03/11 10:09:57;;;;;;;1.73;1.43;;;14.10;56.10;;;;;;925808;151;27467;-77
2023/03/11 10:12:43;;;;;;;1.90;1.43;;;13.50;56.50;;;;;;926864;151;27410;-77
2023/03/11 10:15:18;;;;;;;2.70;1.63;;;13.10;57.00;;;;;;928819;151;27511;-77
2023/03/11 10:18:03;;;;;;;4.47;1.57;;;12.60;57.50;;;;;;925128;151;27332;-77
2023/03/11 10:20:42;;;;;;;4.23;1.90;;;12.20;57.80;;;;;;925734;151;27380;-77
2023/03/11 10:23:39;;;;;;;2.93;1.50;;;11.90;58.40;;;;;;926908;151;27365;-76
2023/03/11 10:26:06;;;;;;;4.33;1.47;;;11.50;58.50;;;;;;908802;151;27366;-77
2023/03/11 10:28:35;;;;;;;3.13;1.60;;;11.20;58.90;;;;;;926482;151;27493;-77
2023/03/11 10:31:17;;;;;;;3.43;1.87;;;11.00;58.90;;;;;;925561;151;27454;-77
2023/03/11 10:33:43;;;;;;;4.93;2.97;;;10.80;59.00;;;;;;926453;151;27384;-77
2023/03/11 10:36:10;;;;;;;2.83;1.83;;;10.70;59.30;;;;;;927091;151;27380;-77
2023/03/11 10:38:41;;;;;;;1.70;1.30;;;10.50;59.70;;;;;;928133;151;27386;-77
2023/03/11 10:41:27;;;;;;;2.53;1.50;;;10.40;59.80;;;;;;923914;151;27312;-77
2023/03/11 10:43:56;;;;;;;2.37;1.40;;;10.40;60.00;;;;;;915239;151;27449;-77
2023/03/11 10:46:25;;;;;;;3.00;1.40;;;10.40;60.10;;;;;;928869;151;27380;-77
2023/03/11 10:48:52;;;;;;;2.47;1.30;;;10.40;60.40;;;;;;926293;151;27497;-77
2023/03/11 10:51:21;;;;;;;3.80;1.50;;;10.40;60.60;;;;;;926728;151;27327;-77
2023/03/11 10:53:51;;;;;;;4.00;1.20;;;10.50;60.70;;;;;;928288;151;27910;-77
2023/03/11 10:56:29;;;;;;;1.87;1.13;;;10.60;60.80;;;;;;925084;151;27495;-76
2023/03/11 10:58:56;;;;;;;1.70;1.50;;;10.70;60.80;;;;;;923293;151;27328;-77
2023/03/11 11:01:22;;;;;;;2.33;1.47;;;10.70;60.70;;;;;;926377;151;27316;-77
2023/03/11 11:03:49;;;;;;;1.80;1.23;;;10.80;60.30;;;;;;927641;151;27485;-77
2023/03/11 11:06:22;;;;;;;5.23;1.37;;;10.80;60.00;;;;;;924403;151;27419;-77
2023/03/11 11:08:48;;;;;;;1.17;1.03;;;10.90;59.90;;;;;;925396;151;27422;-77
2023/03/11 11:11:21;;;;;;;3.83;1.47;;;10.90;59.60;;;;;;926724;151;27383;-76
2023/03/11 11:13:57;;;;;;;1.17;1.00;;;11.00;59.60;;;;;;924789;151;27493;-77
2023/03/11 11:16:23;;;;;;;1.37;0.97;;;11.00;59.40;;;;;;924210;151;27355;-78
2023/03/11 11:18:59;;;;;;;1.57;1.00;;;11.00;59.70;;;;;;925521;151;27475;-77
2023/03/11 11:21:36;;;;;;;1.10;1.00;;;11.00;59.60;;;;;;924309;151;27434;-77
2023/03/11 11:24:15;;;;;;;3.40;1.27;;;11.10;59.70;;;;;;925312;151;27920;-77
2023/03/11 11:26:40;;;;;;;2.50;1.30;;;11.10;59.70;;;;;;927003;151;27364;-77
2023/03/11 11:29:09;;;;;;;2.13;0.80;;;11.20;59.60;;;;;;927606;151;27312;-76
2023/03/11 11:31:36;;;;;;;4.33;1.37;;;11.30;59.20;;;;;;921839;150;27553;-76
2023/03/11 11:34:05;;;;;;;1.70;1.30;;;11.30;59.00;;;;;;921768;150;27432;-76
2023/03/11 11:36:29;;;;;;;3.10;1.33;;;11.30;58.80;;;;;;923393;151;27750;-76
2023/03/11 11:38:56;;;;;;;2.43;1.23;;;11.40;58.20;;;;;;923437;151;27465;-77
2023/03/11 11:41:22;;;;;;;1.27;1.00;;;11.40;58.60;;;;;;923997;151;27383;-77
2023/03/11 11:43:58;;;;;;;3.27;1.27;;;11.50;58.80;;;;;;924845;149;27969;-77
2023/03/11 11:46:34;;;;;;;1.33;1.10;;;11.60;58.70;;;;;;922968;151;27381;-77
2023/03/11 11:49:12;;;;;;;3.93;1.23;;;11.60;58.60;;;;;;922122;151;27344;-78
2023/03/11 11:51:39;;;;;;;1.90;1.30;;;11.70;58.70;;;;;;922509;151;27394;-77
2023/03/11 11:54:11;;;;;;;2.63;0.90;;;11.70;58.30;;;;;;921133;151;27501;-76
2023/03/11 11:56:39;;;;;;;2.13;1.03;;;11.70;57.90;;;;;;922766;151;27457;-77
2023/03/11 11:59:04;;;;;;;1.30;1.20;;;11.70;57.90;;;;;;925638;151;27384;-76
2023/03/11 12:01:49;;;;;;;1.40;1.30;;;11.70;57.80;;;;;;923799;151;27413;-76
2023/03/11 12:04:21;;;;;;;2.00;1.40;;;11.60;57.80;;;;;;924021;151;27369;-77
2023/03/11 12:07:03;;;;;;;4.37;1.47;;;11.60;57.80;;;;;;917002;151;27346;-76
2023/03/11 12:10:00;;;;;;;1.60;1.27;;;11.60;57.90;;;;;;924981;151;27334;-77
2023/03/11 12:12:57;;;;;;;3.23;1.40;;;11.50;58.10;;;;;;922797;151;27456;-77
2023/03/11 12:15:26;;;;;;;3.00;1.27;;;11.50;58.20;;;;;;922994;151;27414;-77
2023/03/11 12:17:53;;;;;;;1.33;1.10;;;11.40;58.20;;;;;;922882;151;27500;-77
2023/03/11 12:20:26;;;;;;;1.43;1.07;;;11.40;58.00;;;;;;924094;151;27410;-77
2023/03/11 12:22:52;;;;;;;1.43;1.17;;;11.40;58.00;;;;;;923326;151;27437;-77
2023/03/11 12:25:33;;;;;;;2.37;1.30;;;11.40;57.90;;;;;;923679;151;27795;-76
2023/03/11 12:28:18;;;;;;;2.13;1.37;;;11.50;58.00;;;;;;916790;151;27378;-77
2023/03/11 12:30:51;;;;;;;2.13;1.03;;;11.60;58.30;;;;;;923702;151;28191;-77
2023/03/11 12:33:17;;;;;;;1.33;1.10;;;11.60;58.10;;;;;;926199;151;27456;-76
2023/03/11 12:35:53;;;;;;;2.43;0.90;;;11.60;57.80;;;;;;923766;151;27411;-76
2023/03/11 12:38:37;;;;;;;2.33;1.37;;;11.70;57.90;;;;;;926046;151;27442;-77
2023/03/11 12:41:12;;;;;;;2.53;1.43;;;11.70;57.80;;;;;;926483;151;27334;-77
2023/03/11 12:43:42;;;;;;;2.23;1.13;;;11.70;57.70;;;;;;925834;151;27351;-77
2023/03/11 12:46:09;;;;;;;1.57;1.03;;;11.70;57.50;;;;;;925087;151;27390;-76
2023/03/11 12:48:35;;;;;;;3.73;1.57;;;11.60;57.60;;;;;;925167;151;27450;-76
2023/03/11 12:51:02;;;;;;;1.30;1.20;;;11.60;57.70;;;;;;925320;151;27381;-76
2023/03/11 12:53:46;;;;;;;4.10;1.27;;;11.70;57.90;;;;;;926477;151;27341;-76
2023/03/11 12:56:28;;;;;;;1.60;1.07;;;11.70;57.60;;;;;;927904;151;27386;-76
2023/03/11 12:59:06;;;;;;;1.57;1.40;;;11.70;57.60;;;;;;928061;151;27488;-76
2023/03/11 13:01:48;;;;;;;3.60;2.00;;;11.70;57.40;;;;;;923654;151;27317;-76
2023/03/11 13:04:36;;;;;;;1.67;1.30;;;11.70;57.40;;;;;;925413;151;27440;-76
2023/03/11 13:07:26;;;;;;;1.63;1.27;;;11.60;57.60;;;;;;907907;151;27313;-76